createdAt,value
2018-08-13T00:01:34.425Z,98096.00
2018-08-13T00:04:02.830Z,98098.00
2018-08-13T00:06:31.239Z,98091.00
2018-08-13T00:08:59.649Z,98091.00
2018-08-13T00:11:28.120Z,98091.00
2018-08-13T00:13:56.581Z,98095.00
2018-08-13T00:16:25.007Z,98094.00
2018-08-13T00:18:53.433Z,98084.00
2018-08-13T00:21:21.851Z,98080.00
2018-08-13T00:23:50.267Z,98091.00
2018-08-13T00:26:18.700Z,98089.00
2018-08-13T00:28:47.125Z,98077.00
2018-08-13T00:31:15.605Z,98079.00
2018-08-13T00:33:44.026Z,98073.00
2018-08-13T00:36:12.491Z,98078.00
2018-08-13T00:38:40.916Z,98066.00
2018-08-13T00:41:09.336Z,98069.00
2018-08-13T00:43:37.769Z,98077.00
2018-08-13T00:46:06.192Z,98069.00
2018-08-13T00:48:34.628Z,98056.00
2018-08-13T00:51:03.095Z,98065.00
2018-08-13T00:53:31.514Z,98065.00
2018-08-13T00:55:59.946Z,98057.00
2018-08-13T00:58:28.399Z,98050.00
2018-08-13T01:00:56.808Z,98054.00
2018-08-13T01:03:25.243Z,98059.00
2018-08-13T01:05:53.773Z,98053.00
2018-08-13T01:08:22.253Z,98053.00
2018-08-13T01:10:51.386Z,98048.00
2018-08-13T01:13:20.230Z,98038.00
2018-08-13T01:15:48.704Z,98032.00
2018-08-13T01:18:17.141Z,98030.00
2018-08-13T01:20:45.569Z,98037.00
2018-08-13T01:23:14.019Z,98035.00
2018-08-13T01:25:42.442Z,98042.00
2018-08-13T01:28:12.842Z,98033.00
2018-08-13T01:30:42.060Z,98032.00
2018-08-13T01:33:10.499Z,98035.00
2018-08-13T01:35:38.910Z,98030.00
2018-08-13T01:38:07.346Z,98036.00
2018-08-13T01:40:35.867Z,98025.00
2018-08-13T01:43:04.504Z,98023.00
2018-08-13T01:45:32.938Z,98015.00
2018-08-13T01:48:01.385Z,98009.00
2018-08-13T01:50:29.907Z,98013.00
2018-08-13T01:52:58.321Z,98016.00
2018-08-13T01:55:26.773Z,98015.00
2018-08-13T01:57:55.245Z,98014.00
2018-08-13T02:00:23.725Z,98009.00
2018-08-13T02:02:52.171Z,98017.00
2018-08-13T02:05:20.626Z,98002.00
2018-08-13T02:07:49.160Z,98005.00
2018-08-13T02:10:17.649Z,97995.00
2018-08-13T02:12:46.092Z,98000.00
2018-08-13T02:15:14.525Z,98005.00
2018-08-13T02:17:42.990Z,97996.00
2018-08-13T02:20:11.432Z,97995.00
2018-08-13T02:22:39.863Z,97992.00
2018-08-13T02:25:08.731Z,97995.00
2018-08-13T02:27:37.183Z,98002.00
2018-08-13T02:30:07.911Z,97987.00
2018-08-13T02:32:36.355Z,97986.00
2018-08-13T02:35:05.273Z,97984.00
2018-08-13T02:37:34.713Z,97984.00
2018-08-13T02:40:03.146Z,97986.00
2018-08-13T02:42:31.585Z,97981.00
2018-08-13T02:45:00.028Z,97986.00
2018-08-13T02:47:28.474Z,97987.00
2018-08-13T02:49:56.921Z,97991.00
2018-08-13T02:52:25.366Z,97986.00
2018-08-13T02:54:53.782Z,98002.00
2018-08-13T02:57:22.234Z,97993.00
2018-08-13T02:59:50.649Z,97987.00
2018-08-13T03:02:19.086Z,97985.00
2018-08-13T03:04:47.655Z,97987.00
2018-08-13T03:07:16.001Z,97982.00
2018-08-13T03:09:44.430Z,97989.00
2018-08-13T03:12:12.882Z,97977.00
2018-08-13T03:14:41.304Z,97982.00
2018-08-13T03:17:09.981Z,97976.00
2018-08-13T03:19:38.404Z,97974.00
2018-08-13T03:22:06.830Z,97982.00
2018-08-13T03:24:35.385Z,97979.00
2018-08-13T03:27:03.826Z,97986.00
2018-08-13T03:29:32.268Z,97985.00
2018-08-13T03:32:00.757Z,97989.00
2018-08-13T03:34:29.173Z,97986.00
2018-08-13T03:36:57.606Z,98003.00
2018-08-13T03:39:26.081Z,97998.00
2018-08-13T03:41:54.505Z,97998.00
2018-08-13T03:44:22.975Z,98004.00
2018-08-13T03:46:51.528Z,98005.00
2018-08-13T03:49:19.958Z,98002.00
2018-08-13T03:54:38.992Z,97995.00
2018-08-13T03:57:07.441Z,98002.00
2018-08-13T03:59:36.288Z,97991.00
2018-08-13T04:02:04.951Z,97991.00
2018-08-13T04:04:33.401Z,97988.00
2018-08-13T04:07:01.805Z,97985.00
2018-08-13T04:09:35.166Z,97986.00
2018-08-13T04:12:03.592Z,97986.00
2018-08-13T04:14:33.251Z,97983.00
2018-08-13T04:17:03.332Z,97982.00
2018-08-13T04:19:33.166Z,97986.00
2018-08-13T04:22:02.267Z,97986.00
2018-08-13T04:24:30.852Z,97991.00
2018-08-13T04:27:00.073Z,97988.00
2018-08-13T04:29:28.517Z,97992.00
2018-08-13T04:31:57.011Z,97982.00
2018-08-13T04:34:25.496Z,97986.00
2018-08-13T04:36:53.929Z,97981.00
2018-08-13T04:39:33.347Z,97982.00
2018-08-13T04:42:01.769Z,97979.00
2018-08-13T04:44:30.312Z,97979.00
2018-08-13T04:46:58.754Z,97971.00
2018-08-13T04:49:27.229Z,97974.00
2018-08-13T04:51:55.688Z,97970.00
2018-08-13T04:54:24.117Z,97963.00
2018-08-13T04:56:52.659Z,97968.00
2018-08-13T04:59:21.180Z,97957.00
2018-08-13T05:01:49.621Z,97963.00
2018-08-13T05:04:18.060Z,97964.00
2018-08-13T05:06:46.500Z,97949.00
2018-08-13T05:09:14.924Z,97952.00
2018-08-13T05:11:43.370Z,97948.00
2018-08-13T05:14:11.858Z,97957.00
2018-08-13T05:16:40.314Z,97942.00
2018-08-13T05:19:08.952Z,97948.00
2018-08-13T05:21:37.424Z,97945.00
2018-08-13T05:24:06.029Z,97943.00
2018-08-13T05:26:34.475Z,97948.00
2018-08-13T05:29:02.912Z,97953.00
2018-08-13T05:31:31.363Z,97943.00
2018-08-13T05:33:59.872Z,97937.00
2018-08-13T05:36:46.201Z,97933.00
2018-08-13T05:39:14.624Z,97934.00
2018-08-13T05:41:43.092Z,97951.00
2018-08-13T05:44:11.520Z,97938.00
2018-08-13T05:46:40.007Z,97938.00
2018-08-13T05:49:08.647Z,97950.00
2018-08-13T05:51:37.129Z,97957.00
2018-08-13T05:54:05.545Z,97957.00
2018-08-13T05:56:34.037Z,97948.00
2018-08-13T05:59:02.467Z,97943.00
2018-08-13T06:01:30.924Z,97937.00
2018-08-13T06:03:59.487Z,97932.00
2018-08-13T06:06:29.477Z,97923.00
2018-08-13T06:08:58.364Z,97924.00
2018-08-13T06:11:27.288Z,97918.00
2018-08-13T06:13:55.837Z,97908.00
2018-08-13T06:16:24.361Z,97911.00
2018-08-13T06:18:53.473Z,97914.00
2018-08-13T06:21:23.018Z,97920.00
2018-08-13T06:23:51.744Z,97932.00
2018-08-13T06:26:21.585Z,97927.00
2018-08-13T06:28:51.138Z,97911.00
2018-08-13T06:31:20.374Z,97900.00
2018-08-13T06:33:48.961Z,97908.00
2018-08-13T06:36:18.836Z,97903.00
2018-08-13T06:38:47.653Z,97913.00
2018-08-13T06:41:16.194Z,97899.00
2018-08-13T06:43:44.744Z,97899.00
2018-08-13T06:46:13.211Z,97905.00
2018-08-13T06:48:41.656Z,97903.00
2018-08-13T06:51:10.157Z,97910.00
2018-08-13T06:53:39.819Z,97899.00
2018-08-13T06:56:08.954Z,97905.00
2018-08-13T06:58:37.585Z,97897.00
2018-08-13T07:01:06.277Z,97891.00
2018-08-13T07:03:34.886Z,97890.00
2018-08-13T07:06:03.383Z,97889.00
2018-08-13T07:08:31.960Z,97893.00
2018-08-13T07:11:00.652Z,97893.00
2018-08-13T07:13:29.229Z,97885.00
2018-08-13T07:16:06.881Z,97892.00
2018-08-13T07:18:35.627Z,97895.00
2018-08-13T07:21:04.047Z,97901.00
2018-08-13T07:23:32.865Z,97897.00
2018-08-13T07:26:01.319Z,97886.00
2018-08-13T07:28:29.897Z,97884.00
2018-08-13T07:30:58.358Z,97886.00
2018-08-13T07:33:26.873Z,97894.00
2018-08-13T07:35:55.604Z,97903.00
2018-08-13T07:38:24.580Z,97890.00
2018-08-13T07:40:53.065Z,97885.00
2018-08-13T07:43:21.768Z,97882.00
2018-08-13T07:45:50.262Z,97893.00
2018-08-13T07:48:18.835Z,97889.00
2018-08-13T07:50:47.350Z,97896.00
2018-08-13T07:53:15.846Z,97889.00
2018-08-13T07:55:44.351Z,97899.00
2018-08-13T07:58:12.938Z,97907.00
2018-08-13T08:00:41.512Z,97920.00
2018-08-13T08:03:10.019Z,97928.00
2018-08-13T08:05:38.519Z,97943.00
2018-08-13T08:08:07.008Z,97945.00
2018-08-13T08:10:35.644Z,97946.00
2018-08-13T08:13:04.273Z,97929.00
2018-08-13T08:15:33.132Z,97938.00
2018-08-13T08:18:01.608Z,97946.00
2018-08-13T08:20:30.098Z,97949.00
2018-08-13T08:22:58.820Z,97944.00
2018-08-13T08:25:27.285Z,97952.00
2018-08-13T08:27:55.789Z,97946.00
2018-08-13T08:30:24.654Z,97961.00
2018-08-13T08:32:53.896Z,97958.00
2018-08-13T08:35:22.375Z,97979.00
2018-08-13T08:37:52.442Z,97981.00
2018-08-13T08:40:21.566Z,97982.00
2018-08-13T08:42:50.779Z,97976.00
2018-08-13T08:45:26.918Z,97978.00
2018-08-13T08:47:56.063Z,97985.00
2018-08-13T08:50:24.756Z,98005.00
2018-08-13T08:52:53.449Z,98003.00
2018-08-13T08:55:22.138Z,98006.00
2018-08-13T08:57:51.130Z,98003.00
2018-08-13T09:00:22.941Z,98004.00
2018-08-13T09:02:54.893Z,97987.00
2018-08-13T09:05:24.572Z,98004.00
2018-08-13T09:07:53.539Z,98005.00
2018-08-13T09:10:23.483Z,98006.00
2018-08-13T09:12:52.438Z,98017.00
2018-08-13T09:15:29.942Z,98023.00
2018-08-13T09:18:49.727Z,98017.00
2018-08-13T09:21:38.534Z,98026.00
2018-08-13T09:24:18.744Z,98028.00
2018-08-13T09:26:58.786Z,98034.00
2018-08-13T09:29:38.569Z,98038.00
2018-08-13T09:32:20.722Z,98034.00
2018-08-13T09:34:57.420Z,98039.00
2018-08-13T09:37:26.123Z,98040.00
2018-08-13T09:39:55.150Z,98032.00
2018-08-13T09:42:34.821Z,98032.00
2018-08-13T09:45:03.281Z,98044.00
2018-08-13T09:47:32.019Z,98054.00
2018-08-13T09:50:01.236Z,98045.00
2018-08-13T09:52:31.196Z,98040.00
2018-08-13T09:55:00.365Z,98043.00
2018-08-13T09:57:29.831Z,98056.00
2018-08-13T09:59:59.039Z,98045.00
2018-08-13T10:02:28.046Z,98046.00
2018-08-13T10:04:58.852Z,98050.00
2018-08-13T10:07:28.558Z,98051.00
2018-08-13T10:09:58.084Z,98046.00
2018-08-13T10:12:29.256Z,98052.00
2018-08-13T10:14:58.392Z,98046.00
2018-08-13T10:17:27.536Z,98057.00
2018-08-13T10:19:56.688Z,98056.00
2018-08-13T10:22:25.999Z,98068.00
2018-08-13T10:24:55.650Z,98058.00
2018-08-13T10:27:26.737Z,98077.00
2018-08-13T10:29:55.841Z,98066.00
2018-08-13T10:32:25.388Z,98079.00
2018-08-13T10:34:54.539Z,98076.00
2018-08-13T10:37:23.829Z,98083.00
2018-08-13T10:39:52.955Z,98077.00
2018-08-13T10:42:22.194Z,98077.00
2018-08-13T10:44:51.260Z,98088.00
2018-08-13T10:47:20.728Z,98078.00
2018-08-13T10:49:49.774Z,98081.00
2018-08-13T10:52:19.171Z,98078.00
2018-08-13T10:54:48.137Z,98088.00
2018-08-13T10:57:17.261Z,98089.00
2018-08-13T10:59:46.260Z,98088.00
2018-08-13T11:02:15.417Z,98084.00
2018-08-13T11:04:44.535Z,98074.00
2018-08-13T11:08:58.673Z,98091.00
2018-08-13T11:11:27.831Z,98101.00
2018-08-13T11:13:56.974Z,98113.00
2018-08-13T11:16:26.114Z,98113.00
2018-08-13T11:18:55.445Z,98120.00
2018-08-13T11:21:24.522Z,98117.00
2018-08-13T11:23:53.798Z,98136.00
2018-08-13T11:26:23.016Z,98144.00
2018-08-13T11:28:52.292Z,98143.00
2018-08-13T11:31:21.445Z,98144.00
2018-08-13T11:33:50.776Z,98139.00
2018-08-13T11:36:19.795Z,98153.00
2018-08-13T11:38:49.250Z,98143.00
2018-08-13T11:41:18.399Z,98142.00
2018-08-13T11:43:47.601Z,98153.00
2018-08-13T11:46:16.625Z,98149.00
2018-08-13T11:48:46.206Z,98147.00
2018-08-13T11:51:15.314Z,98147.00
2018-08-13T11:53:44.439Z,98142.00
2018-08-13T11:56:13.949Z,98144.00
2018-08-13T11:58:43.340Z,98133.00
2018-08-13T12:01:12.509Z,98136.00
2018-08-13T12:03:41.663Z,98134.00
2018-08-13T12:06:11.126Z,98127.00
2018-08-13T12:08:40.511Z,98127.00
2018-08-13T12:11:09.674Z,98135.00
2018-08-13T12:13:38.927Z,98127.00
2018-08-13T12:16:08.874Z,98136.00
2018-08-13T12:18:38.124Z,98139.00
2018-08-13T12:21:08.917Z,98143.00
2018-08-13T12:23:37.945Z,98140.00
2018-08-13T12:26:06.974Z,98145.00
2018-08-13T12:28:36.600Z,98137.00
2018-08-13T12:31:05.603Z,98146.00
2018-08-13T12:33:34.068Z,98141.00
2018-08-13T12:36:02.511Z,98134.00
2018-08-13T12:38:31.113Z,98124.00
2018-08-13T12:40:59.572Z,98118.00
2018-08-13T12:43:28.815Z,98117.00
2018-08-13T12:45:57.952Z,98111.00
2018-08-13T12:48:27.162Z,98103.00
2018-08-13T12:50:56.396Z,98110.00
2018-08-13T12:53:25.525Z,98109.00
2018-08-13T12:55:54.823Z,98088.00
2018-08-13T12:58:24.012Z,98077.00
2018-08-13T13:00:58.232Z,98083.00
2018-08-13T13:03:27.487Z,98075.00
2018-08-13T13:05:56.554Z,98083.00
2018-08-13T13:08:25.637Z,98087.00
2018-08-13T13:10:54.687Z,98067.00
2018-08-13T13:13:23.904Z,98067.00
2018-08-13T13:15:53.407Z,98068.00
2018-08-13T13:18:22.697Z,98074.00
2018-08-13T13:20:51.833Z,98067.00
2018-08-13T13:23:21.124Z,98062.00
2018-08-13T13:25:50.329Z,98075.00
2018-08-13T13:28:19.308Z,98061.00
2018-08-13T13:30:48.492Z,98041.00
2018-08-13T13:33:17.790Z,98043.00
2018-08-13T13:35:46.866Z,98043.00
2018-08-13T13:38:16.014Z,98036.00
2018-08-13T13:40:45.124Z,98025.00
2018-08-13T13:43:14.537Z,98035.00
2018-08-13T13:45:43.968Z,98030.00
2018-08-13T13:48:13.256Z,98033.00
2018-08-13T13:50:42.539Z,98029.00
2018-08-13T13:53:11.714Z,98033.00
2018-08-13T13:55:41.037Z,98017.00
2018-08-13T13:58:10.201Z,98010.00
2018-08-13T14:00:39.606Z,98015.00
2018-08-13T14:03:08.689Z,98018.00
2018-08-13T14:05:37.860Z,97997.00
2018-08-13T14:08:07.526Z,98008.00
2018-08-13T14:10:36.708Z,98001.00
2018-08-13T14:13:06.112Z,98006.00
2018-08-13T14:15:35.119Z,98006.00
2018-08-13T14:18:04.732Z,98008.00
2018-08-13T14:20:33.847Z,98007.00
2018-08-13T14:23:03.119Z,98002.00
2018-08-13T14:25:32.151Z,97986.00
2018-08-13T14:28:01.496Z,97987.00
2018-08-13T14:30:30.640Z,97991.00
2018-08-13T14:32:59.972Z,97984.00
2018-08-13T14:35:29.342Z,97986.00
2018-08-13T14:37:58.578Z,97980.00
2018-08-13T14:40:28.013Z,97982.00
2018-08-13T14:42:57.212Z,97985.00
2018-08-13T14:45:26.363Z,97986.00
2018-08-13T14:47:58.718Z,97983.00
2018-08-13T14:50:28.041Z,97985.00
2018-08-13T14:52:57.762Z,97986.00
2018-08-13T14:55:26.930Z,97985.00
2018-08-13T14:57:56.208Z,97976.00
2018-08-13T15:00:31.484Z,97982.00
2018-08-13T15:03:00.898Z,97985.00
2018-08-13T15:05:30.290Z,97990.00
2018-08-13T15:07:59.703Z,97982.00
2018-08-13T15:10:28.838Z,97988.00
2018-08-13T15:12:57.558Z,97982.00
2018-08-13T15:15:26.620Z,97986.00
2018-08-13T15:17:55.781Z,97978.00
2018-08-13T15:20:28.642Z,97971.00
2018-08-13T15:22:57.915Z,97958.00
2018-08-13T15:25:27.655Z,97958.00
2018-08-13T15:27:56.832Z,97954.00
2018-08-13T15:30:26.792Z,97960.00
2018-08-13T15:32:56.099Z,97965.00
2018-08-13T15:35:25.323Z,97968.00
2018-08-13T15:37:54.538Z,97967.00
2018-08-13T15:40:23.859Z,97964.00
2018-08-13T15:42:52.857Z,97958.00
2018-08-13T15:45:23.062Z,97955.00
2018-08-13T15:47:52.395Z,97953.00
2018-08-13T15:50:22.644Z,97961.00
2018-08-13T15:52:52.388Z,97958.00
2018-08-13T15:55:21.585Z,97952.00
2018-08-13T15:57:50.896Z,97945.00
2018-08-13T16:00:24.499Z,97953.00
2018-08-13T16:02:53.956Z,97953.00
2018-08-13T16:05:23.056Z,97946.00
2018-08-13T16:07:52.827Z,97947.00
2018-08-13T16:10:22.044Z,97943.00
2018-08-13T16:12:51.422Z,97938.00
2018-08-13T16:15:20.476Z,97943.00
2018-08-13T16:17:49.577Z,97944.00
2018-08-13T16:20:19.637Z,97943.00
2018-08-13T16:22:49.415Z,97944.00
2018-08-13T16:25:18.725Z,97958.00
2018-08-13T16:27:48.556Z,97948.00
2018-08-13T16:30:23.586Z,97943.00
2018-08-13T16:32:52.284Z,97934.00
2018-08-13T16:35:21.438Z,97924.00
2018-08-13T16:37:50.132Z,97921.00
2018-08-13T16:40:19.685Z,97926.00
2018-08-13T16:42:49.201Z,97924.00
2018-08-13T16:45:19.324Z,97911.00
2018-08-13T16:47:49.041Z,97907.00
2018-08-13T16:50:29.329Z,97908.00
2018-08-13T16:52:58.904Z,97898.00
2018-08-13T16:55:29.639Z,97906.00
2018-08-13T16:57:59.339Z,97909.00
2018-08-13T17:00:30.594Z,97905.00
2018-08-13T17:03:08.403Z,97892.00
2018-08-13T17:05:40.145Z,97899.00
2018-08-13T17:08:13.031Z,97891.00
2018-08-13T17:10:43.759Z,97889.00
2018-08-13T17:13:16.894Z,97886.00
2018-08-13T17:15:52.630Z,97898.00
2018-08-13T17:18:26.366Z,97895.00
2018-08-13T17:21:01.174Z,97886.00
2018-08-13T17:23:30.774Z,97885.00
2018-08-13T17:26:01.920Z,97890.00
2018-08-13T17:28:33.674Z,97887.00
2018-08-13T17:31:09.567Z,97895.00
2018-08-13T17:33:46.780Z,97893.00
2018-08-13T17:36:16.196Z,97903.00
2018-08-13T17:38:54.578Z,97890.00
2018-08-13T17:41:29.734Z,97900.00
2018-08-13T17:44:03.899Z,97905.00
2018-08-13T17:46:38.137Z,97909.00
2018-08-13T17:49:12.420Z,97906.00
2018-08-13T17:51:45.653Z,97906.00
2018-08-13T17:54:19.689Z,97905.00
2018-08-13T17:56:52.775Z,97898.00
2018-08-13T17:59:45.783Z,97909.00
2018-08-13T18:02:17.145Z,97905.00
2018-08-13T18:04:46.690Z,97901.00
2018-08-13T18:07:21.013Z,97897.00
2018-08-13T18:09:52.918Z,97902.00
2018-08-13T18:12:25.127Z,97898.00
2018-08-13T18:15:02.898Z,97902.00
2018-08-13T18:17:36.369Z,97923.00
2018-08-13T18:20:06.820Z,97928.00
2018-08-13T18:23:44.042Z,97932.00
2018-08-13T18:26:13.199Z,97932.00
2018-08-13T18:28:43.656Z,97936.00
2018-08-13T18:31:12.671Z,97931.00
2018-08-13T18:33:41.265Z,97955.00
2018-08-13T18:36:10.019Z,97939.00
2018-08-13T18:38:39.108Z,97942.00
2018-08-13T18:41:07.884Z,97948.00
2018-08-13T18:43:37.369Z,97951.00
2018-08-13T18:46:09.584Z,97955.00
2018-08-13T18:48:38.206Z,97987.00
2018-08-13T18:51:07.207Z,97986.00
2018-08-13T18:53:36.363Z,97989.00
2018-08-13T18:56:04.984Z,98001.00
2018-08-13T18:58:33.745Z,97994.00
2018-08-13T19:01:02.230Z,98004.00
2018-08-13T19:03:30.670Z,98010.00
2018-08-13T19:06:00.145Z,98007.00
2018-08-13T19:11:20.328Z,97991.00
2018-08-13T19:13:49.705Z,97982.00
2018-08-13T19:16:18.968Z,97986.00
2018-08-13T19:18:48.157Z,97978.00
2018-08-13T19:21:17.739Z,97992.00
2018-08-13T19:23:46.637Z,97993.00
2018-08-13T19:26:15.754Z,97991.00
2018-08-13T19:28:44.616Z,97993.00
2018-08-13T19:31:13.473Z,97985.00
2018-08-13T19:33:42.681Z,97974.00
2018-08-13T19:36:11.425Z,97982.00
2018-08-13T19:38:40.013Z,97989.00
2018-08-13T19:41:09.362Z,97994.00
2018-08-13T19:43:38.672Z,97997.00
2018-08-13T19:46:07.740Z,97996.00
2018-08-13T19:48:36.140Z,97999.00
2018-08-13T19:51:05.410Z,97998.00
2018-08-13T19:53:34.109Z,98001.00
2018-08-13T19:56:03.571Z,97991.00
2018-08-13T19:58:33.142Z,98003.00
2018-08-13T20:01:01.811Z,98008.00
2018-08-13T20:03:30.817Z,98018.00
2018-08-13T20:06:00.398Z,98025.00
2018-08-13T20:08:30.038Z,98007.00
2018-08-13T20:10:58.800Z,98014.00
2018-08-13T20:13:27.485Z,98018.00
2018-08-13T20:15:56.259Z,98024.00
2018-08-13T20:18:24.830Z,98015.00
2018-08-13T20:20:55.172Z,98025.00
2018-08-13T20:23:23.614Z,98017.00
2018-08-13T20:25:52.302Z,98017.00
2018-08-13T20:28:21.081Z,98027.00
2018-08-13T20:30:50.192Z,98012.00
2018-08-13T20:33:19.258Z,98028.00
2018-08-13T20:35:48.152Z,98024.00
2018-08-13T20:38:16.786Z,98027.00
2018-08-13T20:40:46.012Z,98025.00
2018-08-13T20:43:15.526Z,98025.00
2018-08-13T20:45:45.589Z,98021.00
2018-08-13T20:48:14.233Z,98026.00
2018-08-13T20:50:43.335Z,98015.00
2018-08-13T20:53:12.119Z,98029.00
2018-08-13T20:55:41.262Z,98029.00
2018-08-13T20:58:10.975Z,98027.00
2018-08-13T21:00:40.463Z,98016.00
2018-08-13T21:03:09.865Z,98018.00
2018-08-13T21:05:39.161Z,98023.00
2018-08-13T21:08:08.596Z,98022.00
2018-08-13T21:13:28.030Z,98014.00
2018-08-13T21:15:57.804Z,98027.00
2018-08-13T21:18:26.861Z,98035.00
2018-08-13T21:20:55.520Z,98036.00
2018-08-13T21:23:24.053Z,98049.00
2018-08-13T21:25:52.762Z,98048.00
2018-08-13T21:28:21.603Z,98048.00
2018-08-13T21:30:50.782Z,98056.00
2018-08-13T21:33:19.916Z,98056.00
2018-08-13T21:35:48.478Z,98054.00
2018-08-13T21:38:17.046Z,98054.00
2018-08-13T21:40:45.966Z,98055.00
2018-08-13T21:43:14.981Z,98058.00
2018-08-13T21:45:44.537Z,98061.00
2018-08-13T21:48:12.999Z,98063.00
2018-08-13T21:50:41.550Z,98046.00
2018-08-13T21:53:09.999Z,98070.00
2018-08-13T21:55:38.424Z,98065.00
2018-08-13T21:58:06.856Z,98067.00
2018-08-13T22:00:40.760Z,98064.00
2018-08-13T22:03:10.245Z,98063.00
2018-08-13T22:05:38.862Z,98065.00
2018-08-13T22:08:07.538Z,98069.00
2018-08-13T22:10:35.985Z,98070.00
2018-08-13T22:13:04.605Z,98076.00
2018-08-13T22:15:33.798Z,98083.00
2018-08-13T22:18:06.507Z,98088.00
2018-08-13T22:20:36.132Z,98086.00
2018-08-13T22:23:07.223Z,98091.00
2018-08-13T22:25:39.430Z,98081.00
2018-08-13T22:28:09.672Z,98091.00
2018-08-13T22:30:38.130Z,98091.00
2018-08-13T22:33:07.707Z,98100.00
2018-08-13T22:35:36.498Z,98098.00
2018-08-13T22:38:05.407Z,98089.00
2018-08-13T22:40:33.817Z,98088.00
2018-08-13T22:43:02.239Z,98094.00
2018-08-13T22:45:30.799Z,98099.00
2018-08-13T22:47:59.272Z,98093.00
2018-08-13T22:50:27.695Z,98087.00
2018-08-13T22:52:56.106Z,98089.00
2018-08-13T22:55:24.539Z,98090.00
2018-08-13T22:57:52.994Z,98086.00
2018-08-13T23:00:21.949Z,98093.00
2018-08-13T23:02:51.142Z,98099.00
2018-08-13T23:05:22.791Z,98100.00
2018-08-13T23:07:51.198Z,98103.00
2018-08-13T23:10:21.091Z,98108.00
2018-08-13T23:12:51.739Z,98107.00
2018-08-13T23:15:20.665Z,98110.00
2018-08-13T23:17:49.446Z,98114.00
2018-08-13T23:20:19.730Z,98116.00
2018-08-13T23:22:52.701Z,98115.00
2018-08-13T23:25:21.413Z,98123.00
2018-08-13T23:27:51.934Z,98115.00
2018-08-13T23:30:20.414Z,98108.00
2018-08-13T23:32:50.025Z,98099.00
2018-08-13T23:35:19.353Z,98100.00
2018-08-13T23:37:47.904Z,98105.00
2018-08-13T23:40:16.349Z,98105.00
2018-08-13T23:42:44.790Z,98098.00
2018-08-13T23:45:15.706Z,98105.00
2018-08-13T23:47:44.313Z,98105.00
2018-08-13T23:50:15.572Z,98107.00
2018-08-13T23:52:44.020Z,98105.00
2018-08-13T23:55:18.059Z,98104.00
2018-08-13T23:57:47.065Z,98100.00
